Flight Track Log - Related Links

Times and Time Zones

All times are in EDT time to prevent confusion due to time zone crossing. See the EJA982 flight status page for this flight to view local times or setup timezone preferences in your user account.

Time Position Orientation Groundspeed Altitude Reporting Facility
EDT Latitude Longitude Course Direction KTS MPH feet Rate Location/Type
Sun 01:02:40 PM 34.0500 -117.6167 299° West 173 199 1,800  Level Southern California TRACON
Sun 01:04:56 PM 34.1183 -117.7686 299° West 267 307 7,100 2,619 Climbing Los Angeles Center
Sun 01:05:57 PM 34.1583 -117.8297 308° West 280 322 10,400 2,274 Climbing Los Angeles Center
Sun 01:07:00 PM 34.2317 -117.9400 309° West 359 413 11,800 1,270 Climbing Los Angeles Center
Sun 01:08:14 PM 34.3156 -117.9808 338° Northwest 343 395 13,300 2,294 Climbing Los Angeles Center
Sun 01:09:16 PM 34.3833 -117.8831 50° Northeast 309 356 17,000 1,776 Climbing Los Angeles Center
Sun 01:10:19 PM 34.4311 -117.7744 62° Northeast 369 425 17,000  Level Los Angeles Center
Sun 01:11:21 PM 34.4822 -117.6581 62° Northeast 391 450 17,000  Level Los Angeles Center
Sun 01:12:23 PM 34.5461 -117.5181 61° Northeast 397 457 17,000  Level Los Angeles Center
Sun 01:13:25 PM 34.5983 -117.3978 62° Northeast 404 465 17,000  Level Los Angeles Center
Sun 01:14:39 PM 34.6511 -117.2789 62° Northeast 404 465 17,000  Level Los Angeles Center
Sun 01:15:41 PM 34.7147 -117.1367 61° Northeast 402 463 17,000  Level Los Angeles Center
Sun 01:16:43 PM 34.7689 -117.0167 61° Northeast 406 467 17,000  Level Los Angeles Center
Sun 01:17:46 PM 34.8314 -116.8725 62° Northeast 406 467 17,000  Level Los Angeles Center
Sun 01:19:00 PM 34.8847 -116.7528 61° Northeast 405 466 17,000  Level Los Angeles Center
Sun 01:20:02 PM 34.9483 -116.6089 62° Northeast 404 465 17,000  Level Los Angeles Center
Sun 01:21:16 PM 35.0200 -116.5028 50° Northeast 414 476 17,000 44 Level Los Angeles Center
Sun 01:22:19 PM 35.1322 -116.3636 45° Northeast 412 474 17,100 48 Climbing Los Angeles Center
Sun 01:23:21 PM 35.2094 -116.2681 45° Northeast 405 466 17,100 -435 Level Los Angeles Center
Sun 01:24:23 PM 35.2711 -116.1875 47° Northeast 346 398 16,200 -1,355 Descending Los Angeles Center
Sun 01:25:25 PM 35.3344 -116.1094 45° Northeast 330 380 14,300 -1,548 Descending Los Angeles Center
Sun 01:26:27 PM 35.3953 -116.0369 44° Northeast 318 366 13,000 -581 Descending Los Angeles Center
Sun 01:27:29 PM 35.4506 -115.9644 47° Northeast 304 350 13,100  Climbing Los Angeles Center
Sun 01:28:31 PM 35.5217 -115.8728 46° Northeast 306 352 13,000  Descending Los Angeles Center
Sun 01:29:33 PM 35.5839 -115.7994 44° Northeast 294 338 13,100 -541 Climbing Los Angeles Center
Sun 01:30:33 PM 35.6358 -115.7300 47° Northeast 283 326 11,900 -1,513 Descending Los Angeles Center
Sun 01:31:28 PM 35.6772 -115.6614 53° Northeast 275 316 10,200 -931 Descending Los Angeles Center
Sun 01:32:29 PM 35.7222 -115.5886 53° Northeast 267 307 10,100 -738 Descending Los Angeles Center
Sun 01:33:30 PM 35.7711 -115.5147 51° Northeast 264 304 8,700 -984 Descending Los Angeles Center
Sun 01:34:31 PM 35.8189 -115.4461 49° Northeast 266 306 8,100 -298 Descending Los Angeles Center
Sun 01:35:31 PM 35.8728 -115.3756 47° Northeast 283 326 8,100 -47 Level Los Angeles Center
Sun 01:36:38 PM 35.9500 -115.3531 13° North 253 291 8,000 -422 Descending Los Angeles Center
Sun 01:37:39 PM 36.0058 -115.3428 North 202 232 7,200 -491 Descending Los Angeles Center
Sun 01:38:28 PM 36.0533 -115.3325 10° North 202 232 7,100 -70 Descending Los Angeles Center
Sun 01:39:05 PM 36.0778 -115.3267 11° North 204 235 7,100 -90 Level Los Angeles Center
Sun 01:39:35 PM 36.1131 -115.3183 11° North 207 238 7,000 -405 Descending Los Angeles Center
Sun 01:40:19 PM 36.1467 -115.3094 12° North 208 239 6,600 -226 Descending Los Angeles Center
Sun 01:41:21 PM 36.2044 -115.2772 24° Northeast 205 236 6,600 -387 Level Los Angeles Center
Sun 01:42:23 PM 36.1950 -115.2122 100° East 195 224 5,800 -1,161 Descending Los Angeles Center
Sun 01:43:25 PM 36.1733 -115.1539 115° Southeast 189 217 4,200 -1,344 Descending Los Angeles Center
Sun 01:44:28 PM 36.1339 -115.1369 161° South 171 197 3,000 -832 Descending Los Angeles Center
Sun 01:45:42 PM 36.0922 -115.1583 203° Southwest 161 185 2,300 -568 Descending Los Angeles Center
Sun 01:47:00 PM 36.0801 -115.1523 95° East  Level Estimated

Login

Don't have an account? Register now (free) for customized features, flight alerts, and more!